createdAt,value
2023-04-29T00:02:55.345Z,100148.53
2023-04-29T00:05:56.989Z,100149.59
2023-04-29T00:08:58.770Z,100146.84
2023-04-29T00:12:00.311Z,100143.69
2023-04-29T00:15:02.964Z,100149.97
2023-04-29T00:18:04.587Z,100156.97
2023-04-29T00:21:06.125Z,100147.31
2023-04-29T00:24:07.604Z,100150.91
2023-04-29T00:27:09.048Z,100155.41
2023-04-29T00:30:11.266Z,100157.28
2023-04-29T00:33:12.796Z,100155.56
2023-04-29T00:36:14.209Z,100157.28
2023-04-29T00:39:15.607Z,100155.72
2023-04-29T00:42:17.061Z,100155.72
2023-04-29T00:45:18.554Z,100165.50
2023-04-29T00:48:20.008Z,100154.13
2023-04-29T00:51:21.791Z,100159.13
2023-04-29T00:54:23.505Z,100164.28
2023-04-29T00:57:25.362Z,100156.97
2023-04-29T01:00:27.305Z,100174.59
2023-04-29T01:03:30.064Z,100169.16
2023-04-29T01:06:57.240Z,100167.16
2023-04-29T01:10:03.139Z,100159.38
2023-04-29T01:13:18.952Z,100166.38
2023-04-29T01:16:40.987Z,100160.22
2023-04-29T01:19:52.637Z,100172.38
2023-04-29T01:22:56.286Z,100167.09
2023-04-29T01:25:58.979Z,100162.44
2023-04-29T01:29:26.573Z,100174.16
2023-04-29T01:32:41.134Z,100166.22
2023-04-29T01:36:19.608Z,100171.47
2023-04-29T01:39:39.913Z,100178.19
2023-04-29T01:43:17.991Z,100168.28
2023-04-29T01:46:22.359Z,100177.03
2023-04-29T01:49:26.945Z,100180.97
2023-04-29T01:52:28.705Z,100172.31
2023-04-29T01:55:31.323Z,100173.72
2023-04-29T01:58:48.121Z,100178.81
2023-04-29T02:02:07.719Z,100168.00
2023-04-29T02:05:13.065Z,100177.78
2023-04-29T02:08:19.231Z,100177.31
2023-04-29T02:11:21.892Z,100181.03
2023-04-29T02:14:23.461Z,100185.25
2023-04-29T02:17:26.117Z,100180.91
2023-04-29T02:20:27.570Z,100191.41
2023-04-29T02:23:31.117Z,100185.16
2023-04-29T02:26:34.046Z,100191.19
2023-04-29T02:29:35.496Z,100194.88
2023-04-29T02:32:37.066Z,100200.19
2023-04-29T02:35:38.454Z,100195.75
2023-04-29T02:38:39.876Z,100194.13
2023-04-29T02:41:42.108Z,100203.91
2023-04-29T02:44:45.957Z,100216.50
2023-04-29T02:47:47.599Z,100213.94
2023-04-29T02:50:49.618Z,100209.50
2023-04-29T02:53:51.035Z,100205.94
2023-04-29T02:56:52.937Z,100216.06
2023-04-29T02:59:54.520Z,100209.66
2023-04-29T03:02:56.113Z,100211.38
2023-04-29T03:05:57.623Z,100217.31
2023-04-29T03:08:59.110Z,100212.78
2023-04-29T03:12:01.084Z,100214.66
2023-04-29T03:15:02.727Z,100218.47
2023-04-29T03:18:04.979Z,100222.97
2023-04-29T03:21:08.559Z,100223.06
2023-04-29T03:24:10.115Z,100215.03
2023-04-29T03:27:11.777Z,100214.94
2023-04-29T03:30:13.269Z,100207.59
2023-04-29T03:33:23.405Z,100214.38
2023-04-29T03:36:25.482Z,100202.75
2023-04-29T03:39:40.478Z,100207.06
2023-04-29T03:42:41.920Z,100208.78
2023-04-29T03:45:43.362Z,100213.22
2023-04-29T03:48:45.110Z,100213.41
2023-04-29T03:51:47.705Z,100215.88
2023-04-29T03:54:50.697Z,100212.19
2023-04-29T03:57:52.150Z,100222.97
2023-04-29T04:00:54.838Z,100225.81
2023-04-29T04:04:00.788Z,100226.81
2023-04-29T04:07:03.788Z,100230.53
2023-04-29T04:10:14.865Z,100235.84
2023-04-29T04:13:16.301Z,100239.41
2023-04-29T04:16:18.122Z,100243.78
2023-04-29T04:19:19.522Z,100245.56
2023-04-29T04:22:21.503Z,100250.91
2023-04-29T04:25:48.541Z,100256.84
2023-04-29T04:29:12.621Z,100262.94
2023-04-29T04:32:32.581Z,100257.59
2023-04-29T04:35:34.026Z,100265.44
2023-04-29T04:38:35.419Z,100270.03
2023-04-29T04:41:41.331Z,100278.19
2023-04-29T04:44:43.135Z,100276.31
2023-04-29T04:47:49.216Z,100277.09
2023-04-29T04:51:07.772Z,100283.38
2023-04-29T04:54:09.236Z,100282.75
2023-04-29T04:57:10.737Z,100281.06
2023-04-29T05:00:13.258Z,100295.28
2023-04-29T05:03:15.002Z,100297.75
2023-04-29T05:06:17.091Z,100305.53
2023-04-29T05:09:22.019Z,100314.97
2023-04-29T05:12:25.322Z,100315.09
2023-04-29T05:15:27.404Z,100321.19
2023-04-29T05:18:31.573Z,100332.34
2023-04-29T05:21:34.365Z,100330.63
2023-04-29T05:24:36.543Z,100332.56
2023-04-29T05:27:38.429Z,100336.06
2023-04-29T05:30:43.895Z,100338.28
2023-04-29T05:33:45.501Z,100339.94
2023-04-29T05:36:47.194Z,100343.59
2023-04-29T05:39:49.156Z,100347.16
2023-04-29T05:42:52.879Z,100355.97
2023-04-29T05:45:54.328Z,100351.47
2023-04-29T05:48:55.797Z,100356.91
2023-04-29T05:51:57.311Z,100355.16
2023-04-29T05:54:58.744Z,100361.25
2023-04-29T05:58:00.423Z,100367.47
2023-04-29T06:01:01.981Z,100370.06
2023-04-29T06:04:04.167Z,100370.94
2023-04-29T06:07:35.051Z,100370.94
2023-04-29T06:10:46.117Z,100369.34
2023-04-29T06:13:47.865Z,100377.38
2023-04-29T06:16:49.602Z,100386.38
2023-04-29T06:19:51.906Z,100388.13
2023-04-29T06:22:53.407Z,100388.13
2023-04-29T06:25:54.940Z,100389.75
2023-04-29T06:28:56.847Z,100389.84
2023-04-29T06:31:58.544Z,100400.25
2023-04-29T06:35:01.111Z,100398.16
2023-04-29T06:38:22.779Z,100407.03
2023-04-29T06:41:54.589Z,100409.88
2023-04-29T06:45:15.823Z,100414.16
2023-04-29T06:48:31.391Z,100411.34
2023-04-29T06:51:32.829Z,100414.03
2023-04-29T06:54:34.917Z,100421.06
2023-04-29T06:57:36.832Z,100417.56
2023-04-29T07:00:38.317Z,100420.63
2023-04-29T07:03:39.843Z,100430.38
2023-04-29T07:06:41.989Z,100427.50
2023-04-29T07:09:43.416Z,100434.47
2023-04-29T07:12:44.835Z,100439.25
2023-04-29T07:15:46.328Z,100453.22
2023-04-29T07:18:49.213Z,100453.50
2023-04-29T07:21:50.850Z,100459.44
2023-04-29T07:24:55.689Z,100463.66
2023-04-29T07:27:57.638Z,100470.53
2023-04-29T07:31:00.575Z,100485.09
2023-04-29T07:34:02.258Z,100480.00
2023-04-29T07:37:03.960Z,100483.78
2023-04-29T07:40:06.052Z,100486.03
2023-04-29T07:43:09.158Z,100489.09
2023-04-29T07:46:11.396Z,100491.06
2023-04-29T07:49:13.559Z,100497.13
2023-04-29T07:52:15.027Z,100501.38
2023-04-29T07:55:16.682Z,100508.66
2023-04-29T07:58:18.237Z,100521.38
2023-04-29T08:01:19.829Z,100523.03
2023-04-29T08:04:22.624Z,100524.00
2023-04-29T08:07:32.695Z,100518.59
2023-04-29T08:10:40.890Z,100519.72
2023-04-29T08:13:43.777Z,100531.19
2023-04-29T08:16:45.214Z,100529.56
2023-04-29T08:19:46.687Z,100531.44
2023-04-29T08:22:48.100Z,100528.97
2023-04-29T08:25:52.117Z,100529.81
2023-04-29T08:28:53.490Z,100538.00
2023-04-29T08:31:55.407Z,100541.84
2023-04-29T08:34:56.923Z,100532.72
2023-04-29T08:37:58.307Z,100546.09
2023-04-29T08:41:00.876Z,100544.34
2023-04-29T08:44:02.365Z,100543.19
2023-04-29T08:47:04.557Z,100547.41
2023-04-29T08:50:06.833Z,100547.16
2023-04-29T08:53:09.622Z,100555.72
2023-04-29T08:56:21.834Z,100550.28
2023-04-29T08:59:23.726Z,100556.78
2023-04-29T09:02:26.322Z,100556.72
2023-04-29T09:05:28.622Z,100559.28
2023-04-29T09:08:30.798Z,100552.81
2023-04-29T09:11:32.450Z,100557.59
2023-04-29T09:14:34.384Z,100563.34
2023-04-29T09:17:48.454Z,100569.25
2023-04-29T09:20:50.057Z,100572.22
2023-04-29T09:23:53.732Z,100569.66
2023-04-29T09:26:55.666Z,100570.25
2023-04-29T09:30:01.165Z,100569.84
2023-04-29T09:33:08.507Z,100566.19
2023-04-29T09:36:10.596Z,100573.31
2023-04-29T09:39:19.984Z,100574.13
2023-04-29T09:42:21.466Z,100578.78
2023-04-29T09:45:36.814Z,100578.50
2023-04-29T09:48:38.797Z,100584.59
2023-04-29T09:51:52.986Z,100585.53
2023-04-29T09:55:05.089Z,100587.59
2023-04-29T09:58:06.496Z,100581.38
2023-04-29T10:01:09.627Z,100583.16
2023-04-29T10:04:12.213Z,100588.78
2023-04-29T10:07:16.636Z,100583.78
2023-04-29T10:10:18.829Z,100582.94
2023-04-29T10:13:21.447Z,100588.78
2023-04-29T10:16:30.121Z,100585.19
2023-04-29T10:19:35.210Z,100583.34
2023-04-29T10:22:45.274Z,100589.03
2023-04-29T10:25:48.414Z,100585.22
2023-04-29T10:28:51.695Z,100588.31
2023-04-29T10:31:54.139Z,100588.06
2023-04-29T10:34:56.999Z,100577.31
2023-04-29T10:38:01.639Z,100588.69
2023-04-29T10:41:10.350Z,100587.22
2023-04-29T10:44:11.824Z,100584.03
2023-04-29T10:47:20.490Z,100583.63
2023-04-29T10:50:21.866Z,100576.84
2023-04-29T10:53:23.694Z,100570.75
2023-04-29T10:56:37.329Z,100569.03
2023-04-29T10:59:38.650Z,100569.81
2023-04-29T11:02:40.478Z,100569.53
2023-04-29T11:05:41.962Z,100577.38
2023-04-29T11:08:43.662Z,100574.41
2023-04-29T11:11:58.971Z,100566.78
2023-04-29T11:15:04.083Z,100570.28
2023-04-29T11:18:11.455Z,100560.53
2023-04-29T11:21:13.975Z,100561.75
2023-04-29T11:24:16.235Z,100555.16
2023-04-29T11:27:20.096Z,100555.66
2023-04-29T11:30:22.087Z,100559.00
2023-04-29T11:33:24.191Z,100551.78
2023-04-29T11:36:27.195Z,100553.28
2023-04-29T11:39:28.629Z,100555.50
2023-04-29T11:42:30.326Z,100552.03
2023-04-29T11:45:36.026Z,100561.81
2023-04-29T11:48:37.560Z,100569.84
2023-04-29T11:51:39.464Z,100571.66
2023-04-29T11:54:41.365Z,100577.06
2023-04-29T11:57:42.883Z,100578.00
2023-04-29T12:00:47.088Z,100579.09
2023-04-29T12:03:50.271Z,100579.78
2023-04-29T12:06:53.088Z,100584.38
2023-04-29T12:10:13.171Z,100580.88
2023-04-29T12:13:19.559Z,100579.56
2023-04-29T12:16:21.342Z,100583.94
2023-04-29T12:19:22.848Z,100587.53
2023-04-29T12:22:34.280Z,100587.75
2023-04-29T12:25:35.798Z,100592.56
2023-04-29T12:28:38.073Z,100598.72
2023-04-29T12:31:39.617Z,100606.22
2023-04-29T12:34:41.026Z,100606.25
2023-04-29T12:37:42.429Z,100601.41
2023-04-29T12:40:44.620Z,100605.97
2023-04-29T12:43:46.341Z,100606.25
2023-04-29T12:46:47.875Z,100604.94
2023-04-29T12:49:50.006Z,100606.53
2023-04-29T12:52:51.854Z,100607.31
2023-04-29T12:55:53.830Z,100618.97
2023-04-29T12:58:55.467Z,100608.47
2023-04-29T13:01:57.167Z,100603.59
2023-04-29T13:04:59.078Z,100607.31
2023-04-29T13:08:01.387Z,100608.66
2023-04-29T13:11:03.130Z,100617.03
2023-04-29T13:14:08.039Z,100616.78
2023-04-29T13:17:10.719Z,100615.38
2023-04-29T13:20:13.166Z,100609.22
2023-04-29T13:23:14.663Z,100622.31
2023-04-29T13:26:16.357Z,100616.47
2023-04-29T13:29:17.853Z,100621.13
2023-04-29T13:32:24.360Z,100615.97
2023-04-29T13:35:26.222Z,100615.66
2023-04-29T13:38:28.504Z,100618.78
2023-04-29T13:41:34.055Z,100615.97
2023-04-29T13:44:50.998Z,100627.81
2023-04-29T13:48:07.654Z,100621.38
2023-04-29T13:51:55.877Z,100622.50
2023-04-29T13:54:59.207Z,100638.59
2023-04-29T14:01:17.701Z,100628.25
2023-04-29T14:04:26.029Z,100638.88
2023-04-29T14:07:27.539Z,100634.97
2023-04-29T14:10:29.376Z,100629.44
2023-04-29T14:13:31.260Z,100636.44
2023-04-29T14:16:33.146Z,100637.66
2023-04-29T14:19:34.692Z,100640.94
2023-04-29T14:22:37.173Z,100637.19
2023-04-29T14:25:38.653Z,100641.06
2023-04-29T14:28:41.055Z,100648.22
2023-04-29T14:31:42.677Z,100647.34
2023-04-29T14:34:44.090Z,100653.84
2023-04-29T14:37:46.121Z,100652.34
2023-04-29T14:40:47.659Z,100657.81
2023-04-29T14:43:49.234Z,100658.09
2023-04-29T14:46:50.927Z,100656.63
2023-04-29T14:49:52.321Z,100651.00
2023-04-29T14:52:53.790Z,100654.88
2023-04-29T14:55:55.298Z,100663.03
2023-04-29T14:58:56.798Z,100661.38
2023-04-29T15:01:58.201Z,100663.47
2023-04-29T15:04:59.729Z,100666.13
2023-04-29T15:08:02.253Z,100665.13
2023-04-29T15:11:03.701Z,100660.47
2023-04-29T15:14:05.079Z,100669.19
2023-04-29T15:17:07.539Z,100663.47
2023-04-29T15:20:09.609Z,100662.25
2023-04-29T15:23:12.225Z,100664.28
2023-04-29T15:26:14.249Z,100668.19
2023-04-29T15:29:16.005Z,100665.69
2023-04-29T15:32:17.549Z,100663.44
2023-04-29T15:35:19.038Z,100659.47
2023-04-29T15:38:20.727Z,100657.84
2023-04-29T15:41:22.180Z,100662.75
2023-04-29T15:44:23.738Z,100667.09
2023-04-29T15:47:25.402Z,100667.81
2023-04-29T15:50:26.981Z,100669.66
2023-04-29T15:53:28.393Z,100679.63
2023-04-29T15:56:30.432Z,100675.53
2023-04-29T15:59:32.261Z,100679.63
2023-04-29T16:02:33.652Z,100690.94
2023-04-29T16:05:36.850Z,100684.06
2023-04-29T16:08:38.334Z,100680.59
2023-04-29T16:11:39.772Z,100688.53
2023-04-29T16:14:41.355Z,100679.44
2023-04-29T16:17:42.775Z,100687.91
2023-04-29T16:20:44.878Z,100685.50
2023-04-29T16:23:46.878Z,100692.28
2023-04-29T16:26:48.300Z,100691.34
2023-04-29T16:29:49.690Z,100689.16
2023-04-29T16:32:52.015Z,100691.75
2023-04-29T16:35:54.078Z,100687.72
2023-04-29T16:38:55.694Z,100693.72
2023-04-29T16:41:57.056Z,100689.16
2023-04-29T16:44:58.482Z,100679.13
2023-04-29T16:48:00.763Z,100677.44
2023-04-29T16:51:02.484Z,100685.63
2023-04-29T16:54:04.417Z,100686.50
2023-04-29T16:57:05.886Z,100690.38
2023-04-29T17:00:11.095Z,100694.88
2023-04-29T17:03:13.349Z,100688.69
2023-04-29T17:06:18.012Z,100692.56
2023-04-29T17:09:20.108Z,100696.72
2023-04-29T17:12:21.512Z,100704.81
2023-04-29T17:15:23.063Z,100696.97
2023-04-29T17:18:24.458Z,100697.91
2023-04-29T17:21:29.209Z,100699.94
2023-04-29T17:24:31.118Z,100712.28
2023-04-29T17:27:32.542Z,100704.19
2023-04-29T17:30:34.026Z,100709.28
2023-04-29T17:33:35.585Z,100705.53
2023-04-29T17:36:37.337Z,100709.97
2023-04-29T17:39:38.749Z,100711.00
2023-04-29T17:42:40.510Z,100717.47
2023-04-29T17:45:42.362Z,100719.56
2023-04-29T17:48:43.831Z,100709.06
2023-04-29T17:51:45.666Z,100714.38
2023-04-29T17:54:48.403Z,100714.59
2023-04-29T17:57:49.783Z,100716.53
2023-04-29T18:00:52.160Z,100720.41
2023-04-29T18:03:53.604Z,100709.50
2023-04-29T18:06:55.498Z,100725.41
2023-04-29T18:09:57.603Z,100729.09
2023-04-29T18:12:59.658Z,100735.25
2023-04-29T18:16:01.329Z,100731.16
2023-04-29T18:19:03.123Z,100734.69
2023-04-29T18:22:06.168Z,100742.97
2023-04-29T18:25:07.999Z,100739.50
2023-04-29T18:28:24.233Z,100734.22
2023-04-29T18:31:26.649Z,100738.47
2023-04-29T18:34:28.090Z,100732.50
2023-04-29T18:37:29.794Z,100731.72
2023-04-29T18:40:32.093Z,100742.38
2023-04-29T18:43:34.612Z,100746.97
2023-04-29T18:46:36.091Z,100745.25
2023-04-29T18:49:38.356Z,100748.97
2023-04-29T18:52:40.601Z,100746.44
2023-04-29T18:55:41.964Z,100744.53
2023-04-29T18:58:43.386Z,100756.28
2023-04-29T19:01:45.994Z,100759.91
2023-04-29T19:04:47.449Z,100757.47
2023-04-29T19:07:49.385Z,100761.09
2023-04-29T19:10:52.938Z,100764.56
2023-04-29T19:13:55.098Z,100762.84
2023-04-29T19:16:56.939Z,100763.75
2023-04-29T19:19:58.430Z,100767.28
2023-04-29T19:22:59.821Z,100770.16
2023-04-29T19:26:01.226Z,100784.44
2023-04-29T19:29:03.829Z,100788.88
2023-04-29T19:32:05.270Z,100786.03
2023-04-29T19:35:07.592Z,100785.06
2023-04-29T19:38:08.981Z,100787.63
2023-04-29T19:41:10.725Z,100791.81
2023-04-29T19:44:12.268Z,100793.03
2023-04-29T19:47:13.689Z,100794.94
2023-04-29T19:50:15.178Z,100798.44
2023-04-29T19:53:16.848Z,100799.09
2023-04-29T19:56:19.994Z,100797.31
2023-04-29T19:59:21.589Z,100804.41
2023-04-29T20:02:23.218Z,100804.56
2023-04-29T20:05:24.862Z,100807.25
2023-04-29T20:08:26.814Z,100813.66
2023-04-29T20:11:28.245Z,100813.47
2023-04-29T20:14:30.553Z,100811.59
2023-04-29T20:17:32.954Z,100815.00
2023-04-29T20:20:34.572Z,100823.84
2023-04-29T20:23:36.353Z,100825.78
2023-04-29T20:26:37.751Z,100820.75
2023-04-29T20:29:39.426Z,100819.22
2023-04-29T20:32:41.406Z,100822.69
2023-04-29T20:35:42.821Z,100821.81
2023-04-29T20:38:44.380Z,100816.00
2023-04-29T20:41:45.762Z,100816.16
2023-04-29T20:44:47.215Z,100825.03
2023-04-29T20:47:48.768Z,100832.06
2023-04-29T20:50:50.675Z,100833.53
2023-04-29T20:53:52.373Z,100823.66
2023-04-29T20:56:53.987Z,100826.44
2023-04-29T20:59:56.033Z,100832.53
2023-04-29T21:02:57.616Z,100833.78
2023-04-29T21:05:59.122Z,100833.72
2023-04-29T21:09:00.654Z,100837.34
2023-04-29T21:12:05.279Z,100843.38
2023-04-29T21:15:07.730Z,100841.50
2023-04-29T21:18:09.269Z,100842.66
2023-04-29T21:21:11.636Z,100842.91
2023-04-29T21:24:13.005Z,100852.03
2023-04-29T21:27:14.470Z,100845.94
2023-04-29T21:30:16.116Z,100852.97
2023-04-29T21:33:17.615Z,100855.16
2023-04-29T21:36:18.998Z,100845.00
2023-04-29T21:39:20.557Z,100848.41
2023-04-29T21:42:25.233Z,100840.13
2023-04-29T21:45:26.620Z,100841.00
2023-04-29T21:48:28.014Z,100847.13
2023-04-29T21:51:30.008Z,100843.53
2023-04-29T21:54:31.380Z,100838.69
2023-04-29T21:57:43.377Z,100845.19
2023-04-29T22:00:58.005Z,100850.31
2023-04-29T22:03:59.632Z,100855.50
2023-04-29T22:07:01.201Z,100849.44
2023-04-29T22:10:02.591Z,100850.38
2023-04-29T22:13:04.022Z,100857.06
2023-04-29T22:16:05.937Z,100859.03
2023-04-29T22:19:07.528Z,100863.34
2023-04-29T22:22:09.264Z,100863.25
2023-04-29T22:25:10.634Z,100858.84
2023-04-29T22:28:12.271Z,100863.09
2023-04-29T22:31:13.665Z,100867.66
2023-04-29T22:34:15.263Z,100870.69
2023-04-29T22:37:17.327Z,100869.63
2023-04-29T22:40:18.714Z,100860.53
2023-04-29T22:43:20.315Z,100860.34
2023-04-29T22:46:21.721Z,100867.19
2023-04-29T22:49:23.211Z,100862.75
2023-04-29T22:52:26.899Z,100867.97
2023-04-29T22:55:28.310Z,100867.53
2023-04-29T22:58:29.769Z,100867.66
2023-04-29T23:01:31.375Z,100868.63
2023-04-29T23:04:33.297Z,100864.34
2023-04-29T23:07:34.740Z,100870.78
2023-04-29T23:10:36.180Z,100868.38
2023-04-29T23:13:37.554Z,100861.25
2023-04-29T23:16:38.934Z,100865.53
2023-04-29T23:19:40.496Z,100874.25
2023-04-29T23:22:41.868Z,100876.75
2023-04-29T23:25:43.675Z,100871.47
2023-04-29T23:28:45.052Z,100882.19
2023-04-29T23:31:46.535Z,100876.13
2023-04-29T23:34:48.014Z,100880.34
2023-04-29T23:37:49.382Z,100884.75
2023-04-29T23:40:50.778Z,100879.38
2023-04-29T23:43:52.365Z,100877.41
2023-04-29T23:46:53.880Z,100872.16
2023-04-29T23:49:55.491Z,100876.75
2023-04-29T23:52:57.314Z,100878.72
2023-04-29T23:55:59.126Z,100878.63
2023-04-29T23:59:00.717Z,100882.13
